createdAt,value
2019-04-23T00:01:26.812Z,22.63
2019-04-23T00:04:00.953Z,22.77
2019-04-23T00:06:19.003Z,24.73
2019-04-23T00:08:50.123Z,22.10
2019-04-23T00:11:17.205Z,23.67
2019-04-23T00:13:44.219Z,24.77
2019-04-23T00:16:12.926Z,22.37
2019-04-23T00:18:42.243Z,26.00
2019-04-23T00:21:13.811Z,28.07
2019-04-23T00:23:49.784Z,21.33
2019-04-23T00:26:18.867Z,20.10
2019-04-23T00:28:40.892Z,19.57
2019-04-23T00:31:13.735Z,21.50
2019-04-23T00:33:36.064Z,22.37
2019-04-23T00:36:10.286Z,22.23
2019-04-23T00:38:40.229Z,25.13
2019-04-23T00:41:02.863Z,24.57
2019-04-23T00:43:32.876Z,25.60
2019-04-23T00:45:59.672Z,23.23
2019-04-23T00:48:44.005Z,27.87
2019-04-23T00:50:58.256Z,22.80
2019-04-23T00:53:27.007Z,23.07
2019-04-23T01:03:21.552Z,28.57
2019-04-23T01:05:52.636Z,25.67
2019-04-23T01:08:26.386Z,29.10
2019-04-23T01:11:01.840Z,28.83
2019-04-23T01:20:52.979Z,26.40
2019-04-23T01:23:11.575Z,26.67
2019-04-23T01:25:52.332Z,32.30
2019-04-23T01:28:43.565Z,36.20
2019-04-23T01:31:11.480Z,29.23
2019-04-23T01:33:37.982Z,29.03
2019-04-23T01:36:16.469Z,30.63
2019-04-23T01:38:41.822Z,32.27
2019-04-23T01:41:07.809Z,30.63
2019-04-23T01:43:30.713Z,25.00
2019-04-23T01:45:54.472Z,26.70
2019-04-23T01:48:30.016Z,29.40
2019-04-23T01:50:57.500Z,26.63
2019-04-23T01:53:30.082Z,34.83
2019-04-23T01:55:54.435Z,25.47
2019-04-23T01:58:37.029Z,28.40
2019-04-23T02:03:21.471Z,24.37
2019-04-23T02:05:48.327Z,26.13
2019-04-23T02:08:15.655Z,26.03
2019-04-23T02:13:16.680Z,24.83
2019-04-23T02:15:45.945Z,20.13
2019-04-23T02:18:13.644Z,31.37
2019-04-23T02:20:44.376Z,25.00
2019-04-23T02:23:21.632Z,24.47
2019-04-23T02:33:31.761Z,23.87
2019-04-23T02:38:18.843Z,25.67
2019-04-23T02:40:56.016Z,24.37
2019-04-23T02:43:13.023Z,23.83
2019-04-23T02:45:52.100Z,25.57
2019-04-23T02:50:47.955Z,27.10
2019-04-23T02:53:20.194Z,25.23
2019-04-23T02:55:50.134Z,26.00
2019-04-23T03:03:06.075Z,28.57
2019-04-23T03:05:26.342Z,30.83
2019-04-23T03:13:01.645Z,32.50
2019-04-23T03:15:39.769Z,26.93
2019-04-23T03:18:21.119Z,31.77
2019-04-23T03:25:36.310Z,30.70
2019-04-23T03:28:23.255Z,32.03
2019-04-23T03:31:57.901Z,42.87
2019-04-23T03:38:23.491Z,32.40
2019-04-23T03:40:39.662Z,40.03
2019-04-23T03:43:19.419Z,44.30
2019-04-23T03:45:53.432Z,33.27
2019-04-23T03:48:22.236Z,39.33
2019-04-23T03:53:05.177Z,29.37
2019-04-23T03:58:05.212Z,32.10
2019-04-23T04:00:45.904Z,34.60
2019-04-23T04:03:55.194Z,39.23
2019-04-23T04:05:40.044Z,41.20
2019-04-23T04:10:25.636Z,31.27
2019-04-23T04:12:46.065Z,30.63
2019-04-23T04:15:41.312Z,30.30
2019-04-23T04:18:03.944Z,32.77
2019-04-23T04:20:28.954Z,38.83
2019-04-23T04:25:27.098Z,31.00
2019-04-23T04:27:58.155Z,36.10
2019-04-23T04:30:18.664Z,34.50
2019-04-23T04:32:54.468Z,36.03
2019-04-23T04:35:18.323Z,35.43
2019-04-23T04:40:11.149Z,43.30
2019-04-23T04:42:39.552Z,45.33
2019-04-23T04:45:14.176Z,41.10
2019-04-23T04:47:35.423Z,49.63
2019-04-23T04:50:00.220Z,40.37
2019-04-23T04:52:48.789Z,40.30
2019-04-23T04:54:55.865Z,46.90
2019-04-23T04:57:36.680Z,45.30
2019-04-23T05:00:08.347Z,40.80
2019-04-23T05:05:01.547Z,55.57
2019-04-23T05:07:30.384Z,42.20
2019-04-23T05:13:13.883Z,44.83
2019-04-23T05:14:54.555Z,44.40
2019-04-23T05:17:24.456Z,36.27
2019-04-23T05:22:18.255Z,42.37
2019-04-23T05:24:43.308Z,41.43
2019-04-23T05:27:28.951Z,43.77
2019-04-23T05:29:41.473Z,43.97
2019-04-23T05:32:07.573Z,45.77
2019-04-23T05:34:37.441Z,41.87
2019-04-23T05:37:06.212Z,48.93
2019-04-23T05:39:36.851Z,52.50
2019-04-23T05:42:00.604Z,45.93
2019-04-23T05:44:38.716Z,35.37
2019-04-23T05:47:01.012Z,32.40
2019-04-23T05:49:26.192Z,31.47
2019-04-23T05:52:02.177Z,37.87
2019-04-23T05:54:32.295Z,29.43
2019-04-23T05:56:53.949Z,33.63
2019-04-23T05:59:23.082Z,31.83
2019-04-23T06:11:55.517Z,27.77
2019-04-23T06:16:55.270Z,19.00
2019-04-23T06:19:15.791Z,22.53
2019-04-23T06:21:54.881Z,21.03
2019-04-23T06:24:16.569Z,21.93
2019-04-23T06:26:53.522Z,25.77
2019-04-23T06:29:16.017Z,18.37
2019-04-23T06:31:38.014Z,20.13
2019-04-23T06:34:03.817Z,21.80
2019-04-23T06:36:32.636Z,16.33
2019-04-23T06:38:57.066Z,16.17
2019-04-23T06:41:30.981Z,21.77
2019-04-23T06:46:41.104Z,18.97
2019-04-23T06:49:02.109Z,16.70
2019-04-23T06:51:34.930Z,16.93
2019-04-23T06:54:00.016Z,17.30
2019-04-23T06:58:51.096Z,12.70
2019-04-23T07:01:19.201Z,15.70
2019-04-23T07:03:54.825Z,11.60
2019-04-23T07:06:26.626Z,13.53
2019-04-23T07:09:05.702Z,16.70
2019-04-23T07:11:28.718Z,13.53
2019-04-23T07:18:41.598Z,14.37
2019-04-23T07:21:15.399Z,10.40
2019-04-23T07:23:45.432Z,28.37
2019-04-23T07:26:24.340Z,14.17
2019-04-23T07:28:48.578Z,13.97
2019-04-23T07:31:14.280Z,19.07
2019-04-23T07:33:41.721Z,19.67
2019-04-23T07:36:03.890Z,12.47
2019-04-23T07:38:55.016Z,15.03
2019-04-23T07:41:32.215Z,11.07
2019-04-23T07:44:07.805Z,12.00
2019-04-23T07:47:03.325Z,13.70
2019-04-23T07:49:17.937Z,14.80
2019-04-23T07:52:01.150Z,14.60
2019-04-23T07:54:17.574Z,16.30
2019-04-23T07:56:41.934Z,8.90
2019-04-23T07:59:19.427Z,11.60
2019-04-23T08:01:44.770Z,11.77
2019-04-23T08:04:08.833Z,17.57
2019-04-23T08:06:38.616Z,9.47
2019-04-23T08:09:03.564Z,12.93
2019-04-23T08:11:40.068Z,8.60
2019-04-23T08:16:33.612Z,11.97
2019-04-23T08:21:27.695Z,12.40
2019-04-23T08:24:08.747Z,8.23
2019-04-23T08:26:50.951Z,9.73
2019-04-23T08:29:13.912Z,14.13
2019-04-23T08:31:52.485Z,11.93
2019-04-23T08:34:28.539Z,11.60
2019-04-23T08:39:13.286Z,9.90
2019-04-23T08:42:11.004Z,10.83
2019-04-23T08:44:16.793Z,8.33
2019-04-23T08:46:56.862Z,10.93
2019-04-23T08:49:22.154Z,10.90
2019-04-23T08:52:02.474Z,11.23
2019-04-23T08:54:25.294Z,12.70
2019-04-23T08:56:47.984Z,11.37
2019-04-23T08:59:19.787Z,8.63
2019-04-23T09:01:50.721Z,9.80
2019-04-23T09:04:09.819Z,9.97
2019-04-23T09:06:35.374Z,12.73
2019-04-23T09:09:06.441Z,10.57
2019-04-23T09:19:04.000Z,11.20
2019-04-23T09:21:27.479Z,17.43
2019-04-23T09:26:22.472Z,10.33
2019-04-23T09:28:56.765Z,14.93
2019-04-23T09:31:57.081Z,10.73
2019-04-23T09:34:07.544Z,12.63
2019-04-23T09:36:45.314Z,13.73
2019-04-23T09:39:12.719Z,17.57
2019-04-23T09:41:48.371Z,12.07
2019-04-23T09:45:28.242Z,13.23
2019-04-23T09:48:04.570Z,15.00
2019-04-23T09:50:33.454Z,15.87
2019-04-23T09:53:06.451Z,12.63
2019-04-23T09:55:27.480Z,11.80
2019-04-23T09:58:00.131Z,13.90
2019-04-23T10:02:41.153Z,17.77
2019-04-23T10:05:04.469Z,22.37
2019-04-23T10:07:30.055Z,14.57
2019-04-23T10:09:49.793Z,12.33
2019-04-23T10:12:17.717Z,13.30
2019-04-23T10:14:53.910Z,12.10
2019-04-23T10:17:15.926Z,16.47
2019-04-23T10:19:42.804Z,14.83
2019-04-23T10:22:11.453Z,12.83
2019-04-23T10:24:41.055Z,10.97
2019-04-23T10:27:08.407Z,13.23
2019-04-23T10:29:38.449Z,11.70
2019-04-23T10:32:07.598Z,13.60
2019-04-23T10:34:47.574Z,14.07
2019-04-23T10:37:05.266Z,13.03
2019-04-23T10:39:37.859Z,12.53
2019-04-23T10:42:03.277Z,15.20
2019-04-23T10:44:35.285Z,16.47
2019-04-23T10:47:47.777Z,16.93
2019-04-23T10:50:05.519Z,14.20
2019-04-23T10:55:27.163Z,15.20
2019-04-23T10:57:46.189Z,11.37
2019-04-23T10:59:53.913Z,13.80
2019-04-23T11:02:40.297Z,17.60
2019-04-23T11:05:08.799Z,12.73
2019-04-23T11:07:32.458Z,12.63
2019-04-23T11:10:05.578Z,11.30
2019-04-23T11:25:15.934Z,12.30
2019-04-23T11:32:47.082Z,10.17
2019-04-23T11:35:18.201Z,11.80
2019-04-23T11:37:39.276Z,11.13
2019-04-23T11:40:01.296Z,11.37
2019-04-23T11:44:56.057Z,11.83
2019-04-23T11:48:04.075Z,14.70
2019-04-23T11:49:52.619Z,12.30
2019-04-23T11:52:29.093Z,12.37
2019-04-23T11:54:43.621Z,18.30
2019-04-23T11:57:32.581Z,17.07
2019-04-23T12:02:22.029Z,13.60
2019-04-23T12:05:22.521Z,9.27
2019-04-23T12:07:39.858Z,9.93
2019-04-23T12:10:29.184Z,12.43
2019-04-23T12:13:10.423Z,11.73
2019-04-23T12:15:18.075Z,12.00
2019-04-23T12:22:55.500Z,17.10
2019-04-23T12:27:33.433Z,15.13
2019-04-23T12:32:48.773Z,14.00
2019-04-23T12:37:41.457Z,13.73
2019-04-23T12:40:15.358Z,19.50
2019-04-23T12:45:17.941Z,13.13
2019-04-23T12:47:53.718Z,13.23
2019-04-23T12:52:40.680Z,12.47
2019-04-23T12:55:06.834Z,11.00
2019-04-23T12:57:34.399Z,11.03
2019-04-23T12:59:58.271Z,12.57
2019-04-23T13:05:00.275Z,14.90
2019-04-23T13:07:34.496Z,12.23
2019-04-23T13:12:29.279Z,9.53
2019-04-23T13:22:23.988Z,11.73
2019-04-23T13:24:48.982Z,13.60
2019-04-23T13:27:30.696Z,22.87
2019-04-23T13:29:51.876Z,15.20
2019-04-23T13:32:22.028Z,9.53
2019-04-23T13:34:48.506Z,15.57
2019-04-23T13:37:27.364Z,15.27
2019-04-23T13:39:43.885Z,14.57
2019-04-23T13:42:20.027Z,15.03
2019-04-23T13:44:42.657Z,10.93
2019-04-23T13:47:14.993Z,10.73
2019-04-23T13:49:39.657Z,9.10
2019-04-23T13:52:06.023Z,12.37
2019-04-23T13:59:39.193Z,13.23
2019-04-23T14:01:55.747Z,13.80
2019-04-23T14:04:41.806Z,22.47
2019-04-23T14:09:39.504Z,14.67
2019-04-23T14:11:51.220Z,12.27
2019-04-23T14:14:47.825Z,14.53
2019-04-23T14:17:00.152Z,15.40
2019-04-23T14:19:16.245Z,9.73
2019-04-23T14:21:51.669Z,12.00
2019-04-23T14:24:45.511Z,11.67
2019-04-23T14:26:50.595Z,8.67
2019-04-23T14:29:22.941Z,14.10
2019-04-23T14:31:56.839Z,19.17
2019-04-23T14:36:52.126Z,8.53
2019-04-23T14:39:22.283Z,16.87
2019-04-23T14:41:42.506Z,10.00
2019-04-23T14:44:31.308Z,11.93
2019-04-23T14:49:14.272Z,9.43
2019-04-23T14:54:15.743Z,10.70
2019-04-23T14:56:47.792Z,12.17
2019-04-23T14:59:07.816Z,11.03
2019-04-23T15:04:01.612Z,11.27
2019-04-23T15:11:44.187Z,14.47
2019-04-23T15:14:06.038Z,12.57
2019-04-23T15:16:31.695Z,13.33
2019-04-23T15:19:20.020Z,13.43
2019-04-23T15:24:15.947Z,12.13
2019-04-23T15:28:43.592Z,11.23
2019-04-23T15:31:40.184Z,17.33
2019-04-23T15:34:07.542Z,15.50
2019-04-23T15:41:31.990Z,13.73
2019-04-23T15:46:32.678Z,15.70
2019-04-23T15:49:01.419Z,12.43
2019-04-23T15:51:28.269Z,13.53
2019-04-23T15:53:48.598Z,11.70
2019-04-23T15:56:28.950Z,13.10
2019-04-23T15:59:13.705Z,17.00
2019-04-23T16:01:21.173Z,10.60
2019-04-23T16:03:19.806Z,9.33
2019-04-23T16:05:46.700Z,10.30
2019-04-23T16:08:51.339Z,20.93
2019-04-23T16:11:19.672Z,17.93
2019-04-23T16:13:53.394Z,27.57
2019-04-23T16:16:17.724Z,13.17
2019-04-23T16:18:42.183Z,16.33
2019-04-23T16:21:27.406Z,12.77
2019-04-23T16:23:45.922Z,11.20
2019-04-23T16:26:08.716Z,17.80
2019-04-23T16:29:00.280Z,14.73
2019-04-23T16:31:12.971Z,12.67
2019-04-23T16:33:30.245Z,25.97
2019-04-23T16:36:17.953Z,12.00
2019-04-23T16:38:56.522Z,13.47
2019-04-23T16:41:07.915Z,16.43
2019-04-23T16:43:33.739Z,10.47
2019-04-23T16:46:07.260Z,15.50
2019-04-23T16:53:25.149Z,12.27
2019-04-23T16:56:06.895Z,11.93
2019-04-23T16:58:42.117Z,24.47
2019-04-23T17:03:29.047Z,15.63
2019-04-23T17:05:57.810Z,18.23
2019-04-23T17:10:53.296Z,11.77
2019-04-23T17:13:24.060Z,13.60
2019-04-23T17:15:53.339Z,15.13
2019-04-23T17:18:17.260Z,9.87
2019-04-23T17:20:46.775Z,20.77
2019-04-23T17:23:19.304Z,13.60
2019-04-23T17:25:41.676Z,13.50
2019-04-23T17:28:12.763Z,16.70
2019-04-23T17:33:22.419Z,9.53
2019-04-23T17:35:56.129Z,23.17
2019-04-23T17:38:37.902Z,17.07
2019-04-23T17:40:50.678Z,10.57
2019-04-23T17:43:14.644Z,10.83
2019-04-23T17:45:57.160Z,18.73
2019-04-23T17:48:22.174Z,13.90
2019-04-23T17:50:58.456Z,14.70
2019-04-23T17:56:01.074Z,13.47
2019-04-23T17:58:26.584Z,12.67
2019-04-23T18:00:57.281Z,19.63
2019-04-23T18:03:13.035Z,15.10
2019-04-23T18:05:52.213Z,12.43
2019-04-23T18:08:11.271Z,21.17
2019-04-23T18:10:47.717Z,16.00
2019-04-23T18:13:08.867Z,14.33
2019-04-23T18:15:41.536Z,16.57
2019-04-23T18:18:13.603Z,14.50
2019-04-23T18:20:36.899Z,13.97
2019-04-23T18:23:06.630Z,15.60
2019-04-23T18:25:43.634Z,19.87
2019-04-23T18:28:19.079Z,20.77
2019-04-23T18:30:52.838Z,15.20
2019-04-23T18:33:49.386Z,17.57
2019-04-23T18:35:45.644Z,15.10
2019-04-23T18:38:18.719Z,13.53
2019-04-23T18:40:59.251Z,22.27
2019-04-23T18:43:23.065Z,13.03
2019-04-23T18:45:45.124Z,16.27
2019-04-23T18:48:31.492Z,13.83
2019-04-23T18:51:00.360Z,21.47
2019-04-23T18:53:09.725Z,19.63
2019-04-23T18:55:54.349Z,21.93
2019-04-23T18:58:03.936Z,16.70
2019-04-23T19:00:58.263Z,17.97
2019-04-23T19:03:23.132Z,18.23
2019-04-23T19:06:01.093Z,19.37
2019-04-23T19:08:51.552Z,22.63
2019-04-23T19:10:57.399Z,16.97
2019-04-23T19:13:38.563Z,13.43
2019-04-23T19:15:50.555Z,17.77
2019-04-23T19:18:26.651Z,18.47
2019-04-23T19:21:02.297Z,16.67
2019-04-23T19:25:50.151Z,17.37
2019-04-23T19:28:36.153Z,21.60
2019-04-23T19:31:04.975Z,19.00
2019-04-23T19:33:50.877Z,17.87
2019-04-23T19:38:26.531Z,14.20
2019-04-23T19:43:25.183Z,18.70
2019-04-23T19:45:56.729Z,16.47
2019-04-23T19:53:33.074Z,19.23
2019-04-23T19:56:00.226Z,24.83
2019-04-23T20:01:10.293Z,19.17
2019-04-23T20:05:41.088Z,19.70
2019-04-23T20:08:16.774Z,16.30
2019-04-23T20:10:39.263Z,18.67
2019-04-23T20:12:59.147Z,16.20
2019-04-23T20:15:41.140Z,26.07
2019-04-23T20:18:01.080Z,21.80
2019-04-23T20:20:35.382Z,19.23
2019-04-23T20:25:58.470Z,17.47
2019-04-23T20:28:01.952Z,13.63
2019-04-23T20:30:46.962Z,16.70
2019-04-23T20:35:52.417Z,18.97
2019-04-23T20:38:27.452Z,24.97
2019-04-23T20:40:48.428Z,22.13
2019-04-23T20:43:07.409Z,18.47
2019-04-23T20:45:50.861Z,19.20
2019-04-23T20:48:04.819Z,14.70
2019-04-23T20:50:37.633Z,11.10
2019-04-23T20:53:01.350Z,17.17
2019-04-23T20:55:49.653Z,16.10
2019-04-23T20:57:55.274Z,18.57
2019-04-23T21:00:45.794Z,18.73
2019-04-23T21:03:25.881Z,15.87
2019-04-23T21:05:38.983Z,23.07
2019-04-23T21:10:36.926Z,16.27
2019-04-23T21:13:15.189Z,17.77
2019-04-23T21:15:39.021Z,17.60
2019-04-23T21:23:06.303Z,14.33
2019-04-23T21:25:30.498Z,17.30
2019-04-23T21:28:20.779Z,15.87
2019-04-23T21:30:53.666Z,14.17
2019-04-23T21:33:04.875Z,15.10
2019-04-23T21:35:46.348Z,18.43
2019-04-23T21:38:29.761Z,23.23
2019-04-23T21:41:00.163Z,19.47
2019-04-23T21:43:32.954Z,21.43
2019-04-23T21:48:33.866Z,16.63
2019-04-23T21:53:18.472Z,14.53
2019-04-23T21:55:54.400Z,19.87
2019-04-23T21:58:17.274Z,18.83
2019-04-23T22:00:53.529Z,18.17
2019-04-23T22:05:44.031Z,20.50
2019-04-23T22:08:08.349Z,20.33
2019-04-23T22:10:32.304Z,16.27
2019-04-23T22:15:46.515Z,19.43
2019-04-23T22:17:59.369Z,18.43
2019-04-23T22:20:34.781Z,20.30
2019-04-23T22:25:37.735Z,15.97
2019-04-23T22:28:08.314Z,21.80
2019-04-23T22:30:36.221Z,19.77
2019-04-23T22:33:02.647Z,23.93
2019-04-23T22:35:24.348Z,17.37
2019-04-23T22:37:59.002Z,20.40
2019-04-23T22:40:18.158Z,17.10
2019-04-23T22:47:47.957Z,16.93
2019-04-23T22:50:12.635Z,17.90
2019-04-23T22:57:56.480Z,20.07
2019-04-23T23:00:16.671Z,19.97
2019-04-23T23:03:13.323Z,19.60
2019-04-23T23:05:56.441Z,20.07
2019-04-23T23:10:47.836Z,20.03
2019-04-23T23:13:13.802Z,19.90
2019-04-23T23:15:44.940Z,19.50
2019-04-23T23:20:36.189Z,17.57
2019-04-23T23:25:33.413Z,16.90
2019-04-23T23:28:06.250Z,22.27
2019-04-23T23:30:38.826Z,19.77
2019-04-23T23:33:06.975Z,17.53
2019-04-23T23:38:02.585Z,25.50
2019-04-23T23:40:25.623Z,20.17
2019-04-23T23:43:05.725Z,19.27
2019-04-23T23:47:51.549Z,17.97
2019-04-23T23:50:25.249Z,20.60
2019-04-23T23:52:53.720Z,20.90
2019-04-23T23:55:15.761Z,22.50
2019-04-23T23:57:43.827Z,25.73
